Fairmount, North Dakota
Current Conditions -  °F | °C
As of 9:35 AM on Saturday 20 Dec 2014 (Local Time) from KBWP Reporting Station
Overcast Overcast  
Wind Chill: 21°   Ceiling: 900
Heat Index: 30°   Visibility: 5mi
Dew Point: 28°   Wind: 12mph
Humidity: 93%   Direction: 170°S
Pressure: 30.04"   Gusts: NA
Location:  46.05°N, 96.6°W
Report Text: KBWP 201535Z AUTO 17010KT 5SM OVC009 M01/M02 A3004 RMK AO1
Loading
Personal Weather Stations






























Interactive Weather Map New forecast layout! Learn more

10-Day Weather Forecast

Advertisements
Track Severe Weather on mobile